sensor_id;sensor_type;location;lat;lon;timestamp;pressure;altitude;pressure_sealevel;temperature;humidity
64253;BME280;50592;52.958;-7.470;2023-02-01T00:00:15;101436.84;;;6.29;100.00
64253;BME280;50592;52.958;-7.470;2023-02-01T00:02:41;101429.06;;;6.28;100.00
64253;BME280;50592;52.958;-7.470;2023-02-01T00:05:10;101433.38;;;6.29;100.00
64253;BME280;50592;52.958;-7.470;2023-02-01T00:07:37;101426.34;;;6.29;100.00
64253;BME280;50592;52.958;-7.470;2023-02-01T00:10:04;101435.81;;;6.32;100.00
64253;BME280;50592;52.958;-7.470;2023-02-01T00:12:31;101440.31;;;6.30;100.00
64253;BME280;50592;52.958;-7.470;2023-02-01T00:14:56;101440.50;;;6.27;100.00
64253;BME280;50592;52.958;-7.470;2023-02-01T00:17:22;101438.91;;;6.24;100.00
64253;BME280;50592;52.958;-7.470;2023-02-01T00:19:48;101438.16;;;6.22;100.00
64253;BME280;50592;52.958;-7.470;2023-02-01T00:22:14;101438.16;;;6.22;100.00
64253;BME280;50592;52.958;-7.470;2023-02-01T00:24:40;101437.38;;;6.20;100.00
64253;BME280;50592;52.958;-7.470;2023-02-01T00:27:06;101440.19;;;6.17;100.00
64253;BME280;50592;52.958;-7.470;2023-02-01T00:29:31;101434.38;;;6.12;100.00
64253;BME280;50592;52.958;-7.470;2023-02-01T00:31:57;101432.69;;;6.11;100.00
64253;BME280;50592;52.958;-7.470;2023-02-01T00:34:23;101438.22;;;6.06;100.00
64253;BME280;50592;52.958;-7.470;2023-02-01T00:36:49;101430.56;;;6.01;100.00
64253;BME280;50592;52.958;-7.470;2023-02-01T00:39:15;101421.94;;;5.99;100.00
64253;BME280;50592;52.958;-7.470;2023-02-01T00:41:41;101423.91;;;5.95;100.00
64253;BME280;50592;52.958;-7.470;2023-02-01T00:44:07;101423.34;;;5.90;100.00
64253;BME280;50592;52.958;-7.470;2023-02-01T00:46:33;101431.66;;;5.82;100.00
64253;BME280;50592;52.958;-7.470;2023-02-01T00:49:00;101430.28;;;5.75;100.00
64253;BME280;50592;52.958;-7.470;2023-02-01T00:51:28;101438.44;;;5.70;100.00
64253;BME280;50592;52.958;-7.470;2023-02-01T00:53:54;101425.50;;;5.67;100.00
64253;BME280;50592;52.958;-7.470;2023-02-01T00:56:21;101428.19;;;5.66;100.00
64253;BME280;50592;52.958;-7.470;2023-02-01T00:58:47;101424.75;;;5.65;100.00
64253;BME280;50592;52.958;-7.470;2023-02-01T01:01:21;101419.97;;;5.72;100.00
64253;BME280;50592;52.958;-7.470;2023-02-01T01:04:06;101415.59;;;5.73;100.00
64253;BME280;50592;52.958;-7.470;2023-02-01T01:06:33;101420.75;;;5.74;100.00
64253;BME280;50592;52.958;-7.470;2023-02-01T01:09:02;101421.59;;;5.75;100.00
64253;BME280;50592;52.958;-7.470;2023-02-01T01:11:31;101418.03;;;5.76;100.00
64253;BME280;50592;52.958;-7.470;2023-02-01T01:13:58;101417.19;;;5.75;100.00
64253;BME280;50592;52.958;-7.470;2023-02-01T01:16:26;101419.16;;;5.71;100.00
64253;BME280;50592;52.958;-7.470;2023-02-01T01:18:55;101415.94;;;5.66;100.00
64253;BME280;50592;52.958;-7.470;2023-02-01T01:21:21;101410.78;;;5.65;100.00
64253;BME280;50592;52.958;-7.470;2023-02-01T01:23:47;101402.16;;;5.63;100.00
64253;BME280;50592;52.958;-7.470;2023-02-01T01:26:18;101396.72;;;5.66;100.00
64253;BME280;50592;52.958;-7.470;2023-02-01T01:28:45;101394.28;;;5.63;100.00
64253;BME280;50592;52.958;-7.470;2023-02-01T01:31:13;101384.72;;;5.62;100.00
64253;BME280;50592;52.958;-7.470;2023-02-01T01:33:40;101383.13;;;5.59;100.00
64253;BME280;50592;52.958;-7.470;2023-02-01T01:36:08;101385.00;;;5.57;100.00
64253;BME280;50592;52.958;-7.470;2023-02-01T01:38:38;101386.00;;;5.54;100.00
64253;BME280;50592;52.958;-7.470;2023-02-01T01:41:05;101382.91;;;5.48;100.00
64253;BME280;50592;52.958;-7.470;2023-02-01T01:43:50;101387.97;;;5.51;100.00
64253;BME280;50592;52.958;-7.470;2023-02-01T01:46:24;101385.63;;;5.46;100.00
64253;BME280;50592;52.958;-7.470;2023-02-01T01:49:15;101384.94;;;5.42;100.00
64253;BME280;50592;52.958;-7.470;2023-02-01T01:51:52;101385.13;;;5.39;100.00
64253;BME280;50592;52.958;-7.470;2023-02-01T01:56:51;101374.72;;;5.38;100.00
64253;BME280;50592;52.958;-7.470;2023-02-01T01:59:21;101368.34;;;5.42;100.00
64253;BME280;50592;52.958;-7.470;2023-02-01T02:01:47;101372.59;;;5.44;100.00
64253;BME280;50592;52.958;-7.470;2023-02-01T02:04:13;101368.00;;;5.48;100.00
64253;BME280;50592;52.958;-7.470;2023-02-01T02:06:48;101356.06;;;5.58;100.00
64253;BME280;50592;52.958;-7.470;2023-02-01T02:09:14;101367.38;;;5.59;100.00
64253;BME280;50592;52.958;-7.470;2023-02-01T02:11:42;101365.34;;;5.64;100.00
64253;BME280;50592;52.958;-7.470;2023-02-01T02:14:10;101362.25;;;5.72;100.00
64253;BME280;50592;52.958;-7.470;2023-02-01T02:41:33;101373.47;;;5.90;100.00
64253;BME280;50592;52.958;-7.470;2023-02-01T02:44:33;101373.47;;;5.90;100.00
64253;BME280;50592;52.958;-7.470;2023-02-01T02:53:18;101366.69;;;5.86;100.00
64253;BME280;50592;52.958;-7.470;2023-02-01T02:56:06;101352.19;;;5.80;100.00
64253;BME280;50592;52.958;-7.470;2023-02-01T02:58:52;101351.50;;;5.77;100.00
64253;BME280;50592;52.958;-7.470;2023-02-01T03:01:38;101360.78;;;5.68;100.00
64253;BME280;50592;52.958;-7.470;2023-02-01T03:04:24;101359.28;;;5.64;100.00
64253;BME280;50592;52.958;-7.470;2023-02-01T03:06:52;101358.41;;;5.63;100.00
64253;BME280;50592;52.958;-7.470;2023-02-01T03:09:35;101361.81;;;5.65;100.00
64253;BME280;50592;52.958;-7.470;2023-02-01T03:12:08;101363.56;;;5.65;100.00
64253;BME280;50592;52.958;-7.470;2023-02-01T03:14:59;101368.81;;;5.65;100.00
64253;BME280;50592;52.958;-7.470;2023-02-01T03:17:31;101359.28;;;5.64;100.00
64253;BME280;50592;52.958;-7.470;2023-02-01T03:20:01;101358.41;;;5.63;100.00
64253;BME280;50592;52.958;-7.470;2023-02-01T03:22:28;101355.88;;;5.62;100.00
64253;BME280;50592;52.958;-7.470;2023-02-01T03:25:11;101358.41;;;5.63;100.00
64253;BME280;50592;52.958;-7.470;2023-02-01T03:30:21;101343.63;;;5.62;100.00
64253;BME280;50592;52.958;-7.470;2023-02-01T03:32:50;101332.38;;;5.60;100.00
64253;BME280;50592;52.958;-7.470;2023-02-01T03:40:52;101319.25;;;5.60;100.00
64253;BME280;50592;52.958;-7.470;2023-02-01T03:43:21;101316.72;;;5.58;100.00
64253;BME280;50592;52.958;-7.470;2023-02-01T03:45:54;101328.81;;;5.61;100.00
64253;BME280;50592;52.958;-7.470;2023-02-01T03:48:24;101333.38;;;5.57;100.00
64253;BME280;50592;52.958;-7.470;2023-02-01T03:50:53;101321.97;;;5.58;100.00
64253;BME280;50592;52.958;-7.470;2023-02-01T03:53:22;101320.16;;;5.59;100.00
64253;BME280;50592;52.958;-7.470;2023-02-01T03:55:51;101319.44;;;5.57;100.00
64253;BME280;50592;52.958;-7.470;2023-02-01T03:58:20;101323.06;;;5.54;100.00
64253;BME280;50592;52.958;-7.470;2023-02-01T04:00:59;101335.34;;;5.54;100.00
64253;BME280;50592;52.958;-7.470;2023-02-01T04:03:27;101325.22;;;5.48;100.00
64253;BME280;50592;52.958;-7.470;2023-02-01T04:05:53;101335.88;;;5.44;100.00
64253;BME280;50592;52.958;-7.470;2023-02-01T04:08:23;101333.34;;;5.43;100.00
64253;BME280;50592;52.958;-7.470;2023-02-01T04:10:49;101335.13;;;5.42;100.00
64253;BME280;50592;52.958;-7.470;2023-02-01T04:13:15;101335.38;;;5.38;100.00
64253;BME280;50592;52.958;-7.470;2023-02-01T04:15:41;101339.88;;;5.36;100.00
64253;BME280;50592;52.958;-7.470;2023-02-01T04:18:07;101343.53;;;5.33;100.00
64253;BME280;50592;52.958;-7.470;2023-02-01T04:20:32;101347.00;;;5.33;100.00
64253;BME280;50592;52.958;-7.470;2023-02-01T04:22:58;101340.03;;;5.32;100.00
64253;BME280;50592;52.958;-7.470;2023-02-01T04:25:24;101339.38;;;5.29;100.00
64253;BME280;50592;52.958;-7.470;2023-02-01T04:27:50;101342.06;;;5.27;100.00
64253;BME280;50592;52.958;-7.470;2023-02-01T04:30:16;101344.59;;;5.29;100.00
64253;BME280;50592;52.958;-7.470;2023-02-01T04:32:42;101337.78;;;5.26;100.00
64253;BME280;50592;52.958;-7.470;2023-02-01T04:35:08;101341.25;;;5.27;100.00
64253;BME280;50592;52.958;-7.470;2023-02-01T04:37:34;101339.38;;;5.29;100.00
64253;BME280;50592;52.958;-7.470;2023-02-01T04:40:00;101346.91;;;5.35;100.00
64253;BME280;50592;52.958;-7.470;2023-02-01T04:42:29;101356.38;;;5.38;100.00
64253;BME280;50592;52.958;-7.470;2023-02-01T04:44:54;101348.31;;;5.41;100.00
64253;BME280;50592;52.958;-7.470;2023-02-01T04:47:20;101345.53;;;5.44;100.00
64253;BME280;50592;52.958;-7.470;2023-02-01T04:49:46;101356.50;;;5.51;100.00
64253;BME280;50592;52.958;-7.470;2023-02-01T04:52:11;101361.50;;;5.55;100.00
64253;BME280;50592;52.958;-7.470;2023-02-01T04:54:37;101356.88;;;5.59;100.00
64253;BME280;50592;52.958;-7.470;2023-02-01T04:57:03;101353.16;;;5.63;100.00
64253;BME280;50592;52.958;-7.470;2023-02-01T04:59:29;101359.00;;;5.68;100.00
64253;BME280;50592;52.958;-7.470;2023-02-01T05:01:54;101362.25;;;5.72;100.00
64253;BME280;50592;52.958;-7.470;2023-02-01T05:04:20;101370.72;;;5.77;100.00
64253;BME280;50592;52.958;-7.470;2023-02-01T05:06:46;101364.25;;;5.83;100.00
64253;BME280;50592;52.958;-7.470;2023-02-01T05:09:12;101354.53;;;5.85;100.00
64253;BME280;50592;52.958;-7.470;2023-02-01T05:11:38;101366.50;;;5.89;100.00
64253;BME280;50592;52.958;-7.470;2023-02-01T05:14:22;101362.03;;;5.91;100.00
64253;BME280;50592;52.958;-7.470;2023-02-01T05:16:48;101352.97;;;5.97;100.00
64253;BME280;50592;52.958;-7.470;2023-02-01T05:19:13;101352.69;;;6.02;100.00
64253;BME280;50592;52.958;-7.470;2023-02-01T05:21:39;101345.53;;;6.04;100.00
64253;BME280;50592;52.958;-7.470;2023-02-01T05:24:05;101359.38;;;6.07;100.00
64253;BME280;50592;52.958;-7.470;2023-02-01T05:26:37;101351.22;;;6.12;100.00
64253;BME280;50592;52.958;-7.470;2023-02-01T05:29:03;101355.53;;;6.13;100.00
64253;BME280;50592;52.958;-7.470;2023-02-01T05:31:29;101357.13;;;6.16;100.00
64253;BME280;50592;52.958;-7.470;2023-02-01T05:33:55;101352.66;;;6.18;100.00
64253;BME280;50592;52.958;-7.470;2023-02-01T05:36:21;101349.06;;;6.19;100.00
64253;BME280;50592;52.958;-7.470;2023-02-01T05:38:46;101348.03;;;6.22;100.00
64253;BME280;50592;52.958;-7.470;2023-02-01T05:41:12;101341.78;;;6.24;100.00
64253;BME280;50592;52.958;-7.470;2023-02-01T05:43:38;101337.44;;;6.23;100.00
64253;BME280;50592;52.958;-7.470;2023-02-01T05:46:04;101337.44;;;6.23;100.00
64253;BME280;50592;52.958;-7.470;2023-02-01T05:48:30;101328.75;;;6.23;100.00
64253;BME280;50592;52.958;-7.470;2023-02-01T05:50:55;101338.38;;;6.22;100.00
64253;BME280;50592;52.958;-7.470;2023-02-01T05:53:21;101338.28;;;6.24;100.00
64253;BME280;50592;52.958;-7.470;2023-02-01T05:55:47;101333.03;;;6.24;100.00
64253;BME280;50592;52.958;-7.470;2023-02-01T05:58:13;101334.81;;;6.23;100.00
64253;BME280;50592;52.958;-7.470;2023-02-01T06:00:39;101333.91;;;6.24;100.00
64253;BME280;50592;52.958;-7.470;2023-02-01T06:03:05;101330.31;;;6.25;100.00
64253;BME280;50592;52.958;-7.470;2023-02-01T06:05:32;101331.81;;;6.29;100.00
64253;BME280;50592;52.958;-7.470;2023-02-01T06:07:57;101334.63;;;6.26;100.00
64253;BME280;50592;52.958;-7.470;2023-02-01T06:10:24;101338.97;;;6.27;100.00
64253;BME280;50592;52.958;-7.470;2023-02-01T06:12:50;101335.38;;;6.28;100.00
64253;BME280;50592;52.958;-7.470;2023-02-01T06:15:16;101339.59;;;6.31;100.00
64253;BME280;50592;52.958;-7.470;2023-02-01T06:17:43;101322.72;;;6.35;100.00
64253;BME280;50592;52.958;-7.470;2023-02-01T06:20:10;101329.66;;;6.36;100.00
64253;BME280;50592;52.958;-7.470;2023-02-01T06:22:37;101321.78;;;6.36;100.00
64253;BME280;50592;52.958;-7.470;2023-02-01T06:25:04;101325.06;;;6.40;100.00
64253;BME280;50592;52.958;-7.470;2023-02-01T06:27:31;101316.25;;;6.41;100.00
64253;BME280;50592;52.958;-7.470;2023-02-01T06:29:57;101321.31;;;6.44;100.00
64253;BME280;50592;52.958;-7.470;2023-02-01T06:32:23;101321.00;;;6.49;100.00
64253;BME280;50592;52.958;-7.470;2023-02-01T06:34:49;101316.41;;;6.52;100.00
64253;BME280;50592;52.958;-7.470;2023-02-01T06:37:15;101326.53;;;6.58;100.00
64253;BME280;50592;52.958;-7.470;2023-02-01T06:39:41;101319.50;;;6.59;100.00
64253;BME280;50592;52.958;-7.470;2023-02-01T06:42:06;101320.25;;;6.61;100.00
64253;BME280;50592;52.958;-7.470;2023-02-01T06:44:32;101332.34;;;6.64;100.00
64253;BME280;50592;52.958;-7.470;2023-02-01T06:46:58;101322.47;;;6.67;100.00
64253;BME280;50592;52.958;-7.470;2023-02-01T06:49:23;101329.34;;;6.70;100.00
64253;BME280;50592;52.958;-7.470;2023-02-01T06:51:49;101331.97;;;6.70;100.00
64253;BME280;50592;52.958;-7.470;2023-02-01T06:54:15;101338.72;;;6.74;100.00
64253;BME280;50592;52.958;-7.470;2023-02-01T06:56:41;101334.50;;;6.72;100.00
64253;BME280;50592;52.958;-7.470;2023-02-01T06:59:07;101326.72;;;6.70;100.00
64253;BME280;50592;52.958;-7.470;2023-02-01T07:01:33;101336.47;;;6.68;100.00
64253;BME280;50592;52.958;-7.470;2023-02-01T07:04:00;101336.56;;;6.66;100.00
64253;BME280;50592;52.958;-7.470;2023-02-01T07:06:25;101344.34;;;6.68;100.00
64253;BME280;50592;52.958;-7.470;2023-02-01T07:08:51;101338.03;;;6.70;100.00
64253;BME280;50592;52.958;-7.470;2023-02-01T07:11:18;101344.06;;;6.73;100.00
64253;BME280;50592;52.958;-7.470;2023-02-01T07:13:44;101342.38;;;6.72;100.00
64253;BME280;50592;52.958;-7.470;2023-02-01T07:16:16;101346.50;;;6.76;100.00
64253;BME280;50592;52.958;-7.470;2023-02-01T07:18:43;101344.06;;;6.73;100.00
64253;BME280;50592;52.958;-7.470;2023-02-01T07:21:09;101346.69;;;6.73;100.00
64253;BME280;50592;52.958;-7.470;2023-02-01T07:23:35;101353.56;;;6.75;100.00
64253;BME280;50592;52.958;-7.470;2023-02-01T07:26:03;101347.25;;;6.78;100.00
64253;BME280;50592;52.958;-7.470;2023-02-01T07:28:32;101348.00;;;6.80;100.00
64253;BME280;50592;52.958;-7.470;2023-02-01T07:31:04;101350.34;;;6.85;100.00
64253;BME280;50592;52.958;-7.470;2023-02-01T07:33:31;101348.72;;;6.82;100.00
64253;BME280;50592;52.958;-7.470;2023-02-01T07:35:57;101351.44;;;6.80;100.00
64253;BME280;50592;52.958;-7.470;2023-02-01T07:38:22;101347.06;;;6.81;100.00
64253;BME280;50592;52.958;-7.470;2023-02-01T07:40:49;101358.22;;;6.85;100.00
64253;BME280;50592;52.958;-7.470;2023-02-01T07:43:15;101352.88;;;6.86;100.00
64253;BME280;50592;52.958;-7.470;2023-02-01T07:45:41;101349.19;;;6.89;100.00
64253;BME280;50592;52.958;-7.470;2023-02-01T07:48:07;101340.34;;;6.90;100.00
64253;BME280;50592;52.958;-7.470;2023-02-01T07:50:34;101347.03;;;6.95;100.00
64253;BME280;50592;52.958;-7.470;2023-02-01T07:53:00;101344.28;;;6.97;100.00
64253;BME280;50592;52.958;-7.470;2023-02-01T07:55:26;101354.63;;;7.00;100.00
64253;BME280;50592;52.958;-7.470;2023-02-01T07:57:52;101348.50;;;7.00;100.00
64253;BME280;50592;52.958;-7.470;2023-02-01T08:00:18;101346.63;;;7.02;100.00
64253;BME280;50592;52.958;-7.470;2023-02-01T08:03:03;101344.00;;;7.02;100.00
64253;BME280;50592;52.958;-7.470;2023-02-01T08:05:29;101349.25;;;7.02;100.00
64253;BME280;50592;52.958;-7.470;2023-02-01T08:07:55;101351.78;;;7.03;100.00
64253;BME280;50592;52.958;-7.470;2023-02-01T08:10:21;101343.91;;;7.03;100.00
64253;BME280;50592;52.958;-7.470;2023-02-01T08:12:47;101349.91;;;7.05;100.00
64253;BME280;50592;52.958;-7.470;2023-02-01T08:15:17;101349.50;;;7.12;100.00
64253;BME280;50592;52.958;-7.470;2023-02-01T08:17:48;101342.44;;;7.12;100.00
64253;BME280;50592;52.958;-7.470;2023-02-01T08:20:14;101351.19;;;7.13;100.00
64253;BME280;50592;52.958;-7.470;2023-02-01T08:22:40;101351.09;;;7.14;100.00
64253;BME280;50592;52.958;-7.470;2023-02-01T08:25:06;101364.34;;;7.13;100.00
64253;BME280;50592;52.958;-7.470;2023-02-01T08:27:33;101348.56;;;7.13;100.00
64253;BME280;50592;52.958;-7.470;2023-02-01T08:29:59;101338.16;;;7.11;100.00
64253;BME280;50592;52.958;-7.470;2023-02-01T08:32:26;101365.28;;;7.12;100.00
64253;BME280;50592;52.958;-7.470;2023-02-01T08:34:52;101362.56;;;7.13;100.00
64253;BME280;50592;52.958;-7.470;2023-02-01T08:37:18;101366.97;;;7.13;100.00
64253;BME280;50592;52.958;-7.470;2023-02-01T08:39:44;101374.00;;;7.12;100.00
64253;BME280;50592;52.958;-7.470;2023-02-01T08:42:11;101374.84;;;7.13;100.00
64253;BME280;50592;52.958;-7.470;2023-02-01T08:44:56;101380.09;;;7.13;100.00
64253;BME280;50592;52.958;-7.470;2023-02-01T08:47:21;101372.97;;;7.15;100.00
64253;BME280;50592;52.958;-7.470;2023-02-01T08:49:47;101379.91;;;7.16;100.00
64253;BME280;50592;52.958;-7.470;2023-02-01T08:52:14;101383.28;;;7.18;100.00
64253;BME280;50592;52.958;-7.470;2023-02-01T08:54:39;101381.38;;;7.20;100.00
64253;BME280;50592;52.958;-7.470;2023-02-01T08:57:06;101377.75;;;7.23;100.00
64253;BME280;50592;52.958;-7.470;2023-02-01T08:59:32;101373.19;;;7.25;100.00
64253;BME280;50592;52.958;-7.470;2023-02-01T09:01:58;101373.00;;;7.28;100.00
64253;BME280;50592;52.958;-7.470;2023-02-01T09:04:23;101380.72;;;7.31;100.00
64253;BME280;50592;52.958;-7.470;2023-02-01T09:06:49;101380.63;;;7.32;100.00
64253;BME280;50592;52.958;-7.470;2023-02-01T09:09:15;101374.22;;;7.37;100.00
64253;BME280;50592;52.958;-7.470;2023-02-01T09:11:41;101375.97;;;7.36;100.00
64253;BME280;50592;52.958;-7.470;2023-02-01T09:14:06;101388.13;;;7.39;100.00
64253;BME280;50592;52.958;-7.470;2023-02-01T09:16:32;101401.16;;;7.40;100.00
64253;BME280;50592;52.958;-7.470;2023-02-01T09:18:58;101400.09;;;7.43;100.00
64253;BME280;50592;52.958;-7.470;2023-02-01T09:21:24;101399.91;;;7.46;100.00
64253;BME280;50592;52.958;-7.470;2023-02-01T09:23:53;101400.56;;;7.50;100.00
64253;BME280;50592;52.958;-7.470;2023-02-01T09:26:19;101392.78;;;7.48;100.00
64253;BME280;50592;52.958;-7.470;2023-02-01T09:28:44;101398.66;;;7.52;100.00
64253;BME280;50592;52.958;-7.470;2023-02-01T09:31:11;101399.31;;;7.55;100.00
64253;BME280;50592;52.958;-7.470;2023-02-01T09:33:38;101398.44;;;7.55;100.00
64253;BME280;50592;52.958;-7.470;2023-02-01T09:36:05;101392.16;;;7.57;100.00
64253;BME280;50592;52.958;-7.470;2023-02-01T09:38:32;101393.63;;;7.62;100.00
64253;BME280;50592;52.958;-7.470;2023-02-01T09:41:01;101386.50;;;7.64;100.00
64253;BME280;50592;52.958;-7.470;2023-02-01T09:43:45;101392.31;;;7.69;100.00
64253;BME280;50592;52.958;-7.470;2023-02-01T09:46:29;101392.09;;;7.72;100.00
64253;BME280;50592;52.958;-7.470;2023-02-01T09:48:57;101403.44;;;7.73;100.00
64253;BME280;50592;52.958;-7.470;2023-02-01T09:51:34;101398.94;;;7.75;100.00
64253;BME280;50592;52.958;-7.470;2023-02-01T09:54:17;101395.34;;;7.76;100.00
64253;BME280;50592;52.958;-7.470;2023-02-01T09:56:51;101400.41;;;7.79;100.00
64253;BME280;50592;52.958;-7.470;2023-02-01T10:01:57;101403.13;;;7.77;100.00
64253;BME280;50592;52.958;-7.470;2023-02-01T10:04:25;101401.25;;;7.79;100.00
64253;BME280;50592;52.958;-7.470;2023-02-01T10:12:23;101418.63;;;7.82;100.00
64253;BME280;50592;52.958;-7.470;2023-02-01T10:15:09;101418.00;;;7.78;100.00
64253;BME280;50592;52.958;-7.470;2023-02-01T10:20:27;101436.53;;;7.77;100.00
64253;BME280;50592;52.958;-7.470;2023-02-01T10:28:33;101432.38;;;7.73;100.00
64253;BME280;50592;52.958;-7.470;2023-02-01T10:31:03;101439.47;;;7.72;100.00
64253;BME280;50592;52.958;-7.470;2023-02-01T10:33:56;101449.88;;;7.74;100.00
64253;BME280;50592;52.958;-7.470;2023-02-01T10:36:31;101448.47;;;7.68;100.00
64253;BME280;50592;52.958;-7.470;2023-02-01T10:38:58;101456.59;;;7.65;100.00
64253;BME280;50592;52.958;-7.470;2023-02-01T10:41:36;101455.75;;;7.64;100.00
64253;BME280;50592;52.958;-7.470;2023-02-01T10:44:05;101461.13;;;7.63;100.00
64253;BME280;50592;52.958;-7.470;2023-02-01T10:46:33;101457.63;;;7.62;100.00
64253;BME280;50592;52.958;-7.470;2023-02-01T10:49:03;101454.81;;;7.65;100.00
64253;BME280;50592;52.958;-7.470;2023-02-01T10:51:30;101453.94;;;7.65;100.00
64253;BME280;50592;52.958;-7.470;2023-02-01T10:54:19;101465.13;;;7.68;100.00
64253;BME280;50592;52.958;-7.470;2023-02-01T10:56:46;101458.28;;;7.66;100.00
64253;BME280;50592;52.958;-7.470;2023-02-01T10:59:23;101458.72;;;7.73;100.00
64253;BME280;50592;52.958;-7.470;2023-02-01T11:01:50;101463.88;;;7.74;100.00
64253;BME280;50592;52.958;-7.470;2023-02-01T11:04:24;101452.13;;;7.80;100.00
64253;BME280;50592;52.958;-7.470;2023-02-01T11:09:49;101447.72;;;7.93;100.00
64253;BME280;50592;52.958;-7.470;2023-02-01T11:12:33;101464.69;;;8.02;100.00
64253;BME280;50592;52.958;-7.470;2023-02-01T11:15:20;101460.59;;;8.11;100.00
64253;BME280;50592;52.958;-7.470;2023-02-01T11:17:48;101462.91;;;8.16;100.00
64253;BME280;50592;52.958;-7.470;2023-02-01T11:20:39;101463.25;;;8.24;100.00
64253;BME280;50592;52.958;-7.470;2023-02-01T11:23:17;101467.91;;;8.34;100.00
64253;BME280;50592;52.958;-7.470;2023-02-01T11:26:13;101471.88;;;8.39;100.00
64253;BME280;50592;52.958;-7.470;2023-02-01T11:28:46;101463.59;;;8.46;100.00
64253;BME280;50592;52.958;-7.470;2023-02-01T11:31:15;101465.16;;;8.48;100.00
64253;BME280;50592;52.958;-7.470;2023-02-01T11:33:51;101462.22;;;8.53;100.00
64253;BME280;50592;52.958;-7.470;2023-02-01T11:36:23;101469.94;;;8.56;100.00
64253;BME280;50592;52.958;-7.470;2023-02-01T11:38:54;101465.31;;;8.60;100.00
64253;BME280;50592;52.958;-7.470;2023-02-01T11:41:32;101467.84;;;8.61;100.00
64253;BME280;50592;52.958;-7.470;2023-02-01T11:44:00;101460.31;;;8.68;100.00
64253;BME280;50592;52.958;-7.470;2023-02-01T11:46:33;101449.50;;;8.73;100.00
64253;BME280;50592;52.958;-7.470;2023-02-01T11:49:20;101451.81;;;8.77;100.00
64253;BME280;50592;52.958;-7.470;2023-02-01T12:03:01;101431.47;;;9.17;100.00
64253;BME280;50592;52.958;-7.470;2023-02-01T12:05:47;101419.69;;;9.34;100.00
64253;BME280;50592;52.958;-7.470;2023-02-01T12:13:59;101427.84;;;9.67;100.00
64253;BME280;50592;52.958;-7.470;2023-02-01T12:16:48;101428.34;;;9.72;100.00
64253;BME280;50592;52.958;-7.470;2023-02-01T12:38:57;101430.31;;;9.08;100.00
64253;BME280;50592;52.958;-7.470;2023-02-01T12:42:30;101427.69;;;8.95;100.00
64253;BME280;50592;52.958;-7.470;2023-02-01T12:45:02;101422.44;;;8.95;100.00
64253;BME280;50592;52.958;-7.470;2023-02-01T12:50:08;101430.66;;;8.90;100.00
64253;BME280;50592;52.958;-7.470;2023-02-01T12:52:44;101443.75;;;8.92;100.00
64253;BME280;50592;52.958;-7.470;2023-02-01T12:55:41;101430.06;;;8.87;100.00
64253;BME280;50592;52.958;-7.470;2023-02-01T12:58:15;101428.41;;;8.73;100.00
64253;BME280;50592;52.958;-7.470;2023-02-01T13:01:10;101425.03;;;8.71;100.00
64253;BME280;50592;52.958;-7.470;2023-02-01T13:03:54;101414.59;;;8.69;100.00
64253;BME280;50592;52.958;-7.470;2023-02-01T13:06:29;101416.16;;;8.72;100.00
64253;BME280;50592;52.958;-7.470;2023-02-01T13:09:02;101415.13;;;8.74;100.00
64253;BME280;50592;52.958;-7.470;2023-02-01T13:11:42;101407.00;;;8.77;100.00
64253;BME280;50592;52.958;-7.470;2023-02-01T13:14:22;101411.84;;;8.71;100.00
64253;BME280;50592;52.958;-7.470;2023-02-01T13:16:53;101413.53;;;8.72;100.00
64253;BME280;50592;52.958;-7.470;2023-02-01T13:22:39;101424.38;;;8.67;100.00
64253;BME280;50592;52.958;-7.470;2023-02-01T13:27:35;101436.31;;;8.60;100.00
64253;BME280;50592;52.958;-7.470;2023-02-01T13:30:11;101436.22;;;8.61;100.00
64253;BME280;50592;52.958;-7.470;2023-02-01T13:44:11;101402.06;;;8.60;100.00
64253;BME280;50592;52.958;-7.470;2023-02-01T13:46:44;101400.13;;;8.62;100.00
64253;BME280;50592;52.958;-7.470;2023-02-01T13:49:20;101396.47;;;8.64;100.00
64253;BME280;50592;52.958;-7.470;2023-02-01T13:51:50;101403.63;;;8.62;100.00
64253;BME280;50592;52.958;-7.470;2023-02-01T13:56:57;101401.44;;;8.56;100.00
64253;BME280;50592;52.958;-7.470;2023-02-01T14:05:03;101383.69;;;8.45;100.00
64253;BME280;50592;52.958;-7.470;2023-02-01T14:07:29;101405.22;;;8.39;100.00
64253;BME280;50592;52.958;-7.470;2023-02-01T14:09:58;101406.13;;;8.38;100.00
64253;BME280;50592;52.958;-7.470;2023-02-01T14:12:48;101407.84;;;8.39;100.00
64253;BME280;50592;52.958;-7.470;2023-02-01T14:15:26;101412.69;;;8.32;100.00
64253;BME280;50592;52.958;-7.470;2023-02-01T14:17:52;101407.09;;;8.24;100.00
64253;BME280;50592;52.958;-7.470;2023-02-01T14:20:50;101412.56;;;8.21;100.00
64253;BME280;50592;52.958;-7.470;2023-02-01T14:23:42;101396.88;;;8.19;100.00
64253;BME280;50592;52.958;-7.470;2023-02-01T14:26:12;101409.44;;;8.15;100.00
64253;BME280;50592;52.958;-7.470;2023-02-01T14:29:00;101419.09;;;8.15;100.00
64253;BME280;50592;52.958;-7.470;2023-02-01T14:31:42;101416.56;;;8.13;100.00
64253;BME280;50592;52.958;-7.470;2023-02-01T14:37:04;101408.44;;;8.03;100.00
64253;BME280;50592;52.958;-7.470;2023-02-01T14:42:12;101400.56;;;8.03;100.00
64253;BME280;50592;52.958;-7.470;2023-02-01T14:44:41;101401.63;;;8.01;100.00
64253;BME280;50592;52.958;-7.470;2023-02-01T14:50:03;101407.72;;;8.14;100.00
64253;BME280;50592;52.958;-7.470;2023-02-01T14:52:36;101410.16;;;8.17;100.00
64253;BME280;50592;52.958;-7.470;2023-02-01T14:55:21;101402.88;;;8.21;100.00
64253;BME280;50592;52.958;-7.470;2023-02-01T14:57:52;101394.66;;;8.26;100.00
64253;BME280;50592;52.958;-7.470;2023-02-01T15:00:24;101396.22;;;8.28;100.00
64253;BME280;50592;52.958;-7.470;2023-02-01T15:02:52;101395.09;;;8.32;100.00
64253;BME280;50592;52.958;-7.470;2023-02-01T15:05:32;101393.81;;;8.38;100.00
64253;BME280;50592;52.958;-7.470;2023-02-01T15:08:05;101390.97;;;8.41;100.00
64253;BME280;50592;52.958;-7.470;2023-02-01T15:10:42;101395.91;;;8.46;100.00